Corozal, Belize
Current Conditions -  °F | °C
As of 6:40 PM on Saturday 25 Oct 2014 (Local Time) from MMCM Reporting Station
Broken Clouds Broken Clouds  
Wind Chill: 25°   Ceiling: 20000
Heat Index: 26°   Visibility: 7mi
Dew Point: 23°   Wind: 0mph
Humidity: 89%   Direction: NA
Pressure: 29.95"   Gusts: NA
Location:  18.4°N, 88.39°W
Report Text: MMCM 260040Z 00000KT 7SM BKN200 25/23 A2995 RMK 8/002 RTS
Loading
Personal Weather Stations






























Interactive Weather Map
Tropical Storm Tracking
New forecast layout! Learn more

10-Day Weather Forecast

Advertisements
Track Severe Weather on mobile